Time;durP1;ratioP1;P1;durP2;ratioP2;P2;SDS_P1;SDS_P2;PMS_P1;PMS_P2;Temp;Humidity;BMP_temperature;BMP_pressure;BME280_temperature;BME280_humidity;BME280_pressure;Samples;Min_cycle;Max_cycle;Signal;HPM_P1;HPM_P2
2023/05/18 00:00:05;;;;;;;8.50;3.97;;;;;;;11.30;60.36;100682.03;4996319;28;20060;-92
2023/05/18 00:02:32;;;;;;;5.60;2.60;;;;;;;11.35;59.65;100686.13;5014987;28;20044;-92
2023/05/18 00:05:00;;;;;;;9.05;3.25;;;;;;;11.36;59.15;100682.50;5001258;28;20045;-92
2023/05/18 00:07:32;;;;;;;9.52;3.10;;;;;;;11.39;58.09;100684.91;5027619;28;20132;-90
2023/05/18 00:10:00;;;;;;;6.63;2.85;;;;;;;11.35;57.20;100683.44;5016810;28;20045;-92
2023/05/18 00:12:27;;;;;;;8.40;2.58;;;;;;;11.24;57.17;100681.63;5000434;28;20066;-92
2023/05/18 00:14:54;;;;;;;8.50;2.40;;;;;;;11.27;56.89;100676.94;4995561;28;20099;-92
2023/05/18 00:17:21;;;;;;;7.68;2.20;;;;;;;11.27;56.92;100671.63;5011696;28;20037;-92
2023/05/18 00:19:49;;;;;;;5.00;2.13;;;;;;;11.27;56.83;100671.63;4996292;28;20127;-92
2023/05/18 00:22:18;;;;;;;6.65;2.53;;;;;;;11.25;56.76;100668.25;4979415;28;20041;-91
2023/05/18 00:24:46;;;;;;;6.18;2.47;;;;;;;11.34;55.98;100669.31;5012326;28;20045;-91
2023/05/18 00:27:13;;;;;;;7.63;2.08;;;;;;;11.31;55.67;100677.53;4997348;28;20057;-92
2023/05/18 00:29:40;;;;;;;11.90;2.72;;;;;;;11.30;55.80;100668.72;5013165;28;20133;-92
2023/05/18 00:32:07;;;;;;;7.32;2.25;;;;;;;11.30;55.45;100670.53;5007879;28;20119;-91
2023/05/18 00:34:36;;;;;;;5.47;2.90;;;;;;;11.29;55.72;100671.50;5013015;28;20040;-92
2023/05/18 00:37:03;;;;;;;16.67;3.10;;;;;;;11.21;55.78;100671.25;5007156;28;20118;-92
2023/05/18 00:39:30;;;;;;;10.60;2.75;;;;;;;11.08;55.78;100674.00;5000237;28;20404;-91
2023/05/18 00:41:57;;;;;;;14.45;2.67;;;;;;;11.15;56.08;100671.75;5012320;28;20049;-91
2023/05/18 00:44:23;;;;;;;7.03;2.35;;;;;;;11.07;55.67;100670.50;4995677;28;20052;-93
2023/05/18 00:46:50;;;;;;;8.50;2.50;;;;;;;11.08;56.00;100666.88;4995266;28;20103;-92
2023/05/18 00:49:17;;;;;;;5.65;2.40;;;;;;;11.06;55.79;100671.47;4996206;28;20518;-92
2023/05/18 00:51:44;;;;;;;10.43;2.75;;;;;;;11.01;55.49;100678.09;5004334;28;20124;-93
2023/05/18 00:54:11;;;;;;;9.38;2.42;;;;;;;10.96;55.71;100685.59;5014786;28;20107;-92
2023/05/18 00:56:40;;;;;;;9.63;2.45;;;;;;;10.98;55.46;100679.19;5014768;28;20053;-92
2023/05/18 00:59:11;;;;;;;10.65;2.58;;;;;;;11.03;55.44;100679.69;5012098;28;20495;-91
2023/05/18 01:01:45;;;;;;;7.95;2.38;;;;;;;10.98;55.44;100671.22;4996297;28;20499;-92
2023/05/18 01:04:15;;;;;;;6.05;2.50;;;;;;;10.99;55.17;100683.56;4996645;28;20126;-92
2023/05/18 01:06:42;;;;;;;7.97;2.00;;;;;;;10.86;55.37;100681.00;5011850;28;20063;-92
2023/05/18 01:09:10;;;;;;;10.55;2.20;;;;;;;10.93;55.41;100675.19;4984051;28;20041;-92
2023/05/18 01:11:46;;;;;;;13.23;2.85;;;;;;;10.91;55.59;100679.78;5006898;28;20045;-93
2023/05/18 01:14:33;;;;;;;10.32;3.05;;;;;;;10.79;55.48;100676.25;5002993;28;20061;-92
2023/05/18 01:17:15;;;;;;;11.63;2.90;;;;;;;10.82;55.41;100668.06;4993993;28;20484;-91
2023/05/18 01:20:07;;;;;;;7.30;2.47;;;;;;;10.78;55.50;100679.84;4995287;28;20060;-92
2023/05/18 01:22:57;;;;;;;7.75;2.72;;;;;;;10.82;55.90;100671.53;4992651;28;20056;-92
2023/05/18 01:25:30;;;;;;;8.32;2.40;;;;;;;10.83;55.68;100673.22;5010484;28;20053;-91
2023/05/18 01:28:05;;;;;;;11.00;2.95;;;;;;;10.88;55.88;100678.19;5014463;28;20044;-92
2023/05/18 01:30:33;;;;;;;11.90;2.70;;;;;;;10.96;55.72;100680.25;5001245;28;20055;-91
2023/05/18 01:33:00;;;;;;;11.60;2.63;;;;;;;10.90;55.75;100675.44;4995101;28;20565;-92
2023/05/18 01:35:27;;;;;;;7.20;2.35;;;;;;;10.93;56.00;100669.88;4995688;28;20045;-92
2023/05/18 01:37:56;;;;;;;9.13;2.65;;;;;;;10.93;55.76;100676.03;5017609;28;20215;-92
2023/05/18 01:40:25;;;;;;;6.70;2.78;;;;;;;10.90;55.84;100670.97;4979786;28;20115;-90
2023/05/18 01:42:55;;;;;;;8.95;2.47;;;;;;;10.88;55.51;100667.56;4998895;28;20052;-92
2023/05/18 01:45:25;;;;;;;12.70;2.55;;;;;;;10.92;55.51;100668.19;4993760;28;20499;-92
2023/05/18 01:47:56;;;;;;;11.18;3.08;;;;;;;10.92;55.84;100665.53;4999611;28;20041;-92
2023/05/18 01:50:29;;;;;;;12.60;2.88;;;;;;;10.83;55.82;100664.41;4994039;28;20052;-92
2023/05/18 01:53:00;;;;;;;7.88;2.65;;;;;;;10.71;55.37;100668.00;4981245;28;20634;-92
2023/05/18 01:55:28;;;;;;;9.52;2.30;;;;;;;10.73;55.68;100661.59;4994287;28;20046;-92
2023/05/18 01:57:57;;;;;;;10.60;2.50;;;;;;;10.68;55.90;100654.97;5008867;28;20068;-93
2023/05/18 02:00:24;;;;;;;9.55;2.97;;;;;;;10.72;55.65;100670.56;5010897;28;20044;-92
2023/05/18 02:02:51;;;;;;;6.85;2.35;;;;;;;10.70;56.04;100659.19;4987595;28;20049;-92
2023/05/18 02:05:18;;;;;;;6.95;2.55;;;;;;;10.62;56.00;100659.78;5010850;28;20049;-92
2023/05/18 02:07:46;;;;;;;9.80;3.47;;;;;;;10.57;56.42;100661.09;4999561;28;20048;-91
2023/05/18 02:10:14;;;;;;;8.07;2.28;;;;;;;10.49;56.67;100664.31;5010389;28;20045;-90
2023/05/18 02:12:41;;;;;;;10.60;2.78;;;;;;;10.50;56.81;100658.03;5006919;28;20048;-90
2023/05/18 02:15:08;;;;;;;8.45;2.47;;;;;;;10.54;56.69;100659.50;4991306;28;20080;-91
2023/05/18 02:17:38;;;;;;;9.52;2.67;;;;;;;10.50;56.37;100655.38;5012726;28;20377;-91
2023/05/18 02:20:10;;;;;;;8.20;2.95;;;;;;;10.41;56.94;100658.75;4994848;28;20045;-91
2023/05/18 02:22:36;;;;;;;9.93;2.60;;;;;;;10.50;56.83;100663.34;5007421;28;20048;-91
2023/05/18 02:25:04;;;;;;;4.97;2.75;;;;;;;10.47;56.62;100662.75;5010585;28;20045;-90
2023/05/18 02:27:32;;;;;;;4.95;3.10;;;;;;;10.37;56.45;100652.78;5010760;28;20493;-92
2023/05/18 02:29:59;;;;;;;10.02;2.58;;;;;;;10.40;56.46;100657.88;4982566;28;20102;-91
2023/05/18 02:32:26;;;;;;;10.25;2.90;;;;;;;10.38;56.76;100656.28;4996542;28;20049;-92
2023/05/18 02:34:53;;;;;;;9.48;2.28;;;;;;;10.37;56.73;100668.72;4995256;28;20403;-91
2023/05/18 02:37:21;;;;;;;8.45;2.53;;;;;;;10.30;56.97;100656.03;4994911;28;20552;-90
2023/05/18 02:39:49;;;;;;;7.38;2.90;;;;;;;10.22;57.18;100654.75;5006467;28;20063;-93
2023/05/18 02:42:16;;;;;;;8.50;2.90;;;;;;;10.26;57.28;100659.84;4996219;28;20049;-91
2023/05/18 02:44:42;;;;;;;7.95;2.67;;;;;;;10.25;56.84;100653.66;4994148;28;20072;-91
2023/05/18 02:47:13;;;;;;;11.07;2.88;;;;;;;10.16;57.12;100657.84;5021975;28;20043;-91
2023/05/18 02:49:40;;;;;;;7.78;2.53;;;;;;;10.09;57.65;100656.59;4977990;28;20111;-90
2023/05/18 02:52:06;;;;;;;10.70;3.25;;;;;;;10.10;57.36;100665.41;4990990;28;20060;-92
2023/05/18 02:54:33;;;;;;;8.38;2.90;;;;;;;9.98;57.71;100645.94;5010396;28;20067;-91
2023/05/18 02:57:02;;;;;;;10.68;2.90;;;;;;;9.96;57.74;100651.34;4993708;28;20053;-91
2023/05/18 02:59:56;;;;;;;11.75;2.55;;;;;;;9.84;58.05;100665.50;5003750;28;20404;-92
2023/05/18 03:02:23;;;;;;;5.22;2.20;;;;;;;9.81;58.17;100657.78;5001995;28;20525;-89
2023/05/18 03:04:52;;;;;;;9.07;2.55;;;;;;;9.80;58.33;100653.44;5017016;28;20514;-91
2023/05/18 03:07:20;;;;;;;7.32;2.80;;;;;;;9.82;58.25;100658.63;5001236;28;20040;-92
2023/05/18 03:09:47;;;;;;;10.45;2.90;;;;;;;9.88;58.09;100669.63;5021680;28;20040;-92
2023/05/18 03:12:14;;;;;;;7.22;2.50;;;;;;;9.87;57.87;100678.56;4983774;28;20901;-92
2023/05/18 03:14:41;;;;;;;10.90;3.03;;;;;;;9.66;58.62;100670.31;4982439;28;20048;-91
2023/05/18 03:17:08;;;;;;;9.82;2.45;;;;;;;9.80;58.44;100668.50;4995532;28;20098;-92
2023/05/18 03:19:35;;;;;;;6.00;2.40;;;;;;;9.86;58.05;100657.44;5001320;28;20044;-92
2023/05/18 03:22:03;;;;;;;9.25;2.90;;;;;;;9.88;58.11;100663.50;4972517;28;20132;-91
2023/05/18 03:24:39;;;;;;;6.85;2.55;;;;;;;9.90;58.01;100669.53;4994402;28;20064;-91
2023/05/18 03:27:11;;;;;;;11.75;2.60;;;;;;;9.79;58.20;100664.97;5015154;28;20385;-91
2023/05/18 03:29:39;;;;;;;12.75;3.15;;;;;;;9.88;57.86;100659.03;5030809;28;20056;-91
2023/05/18 03:32:06;;;;;;;10.57;3.33;;;;;;;9.76;58.06;100667.88;4996426;28;20049;-91
2023/05/18 03:34:33;;;;;;;5.82;2.45;;;;;;;9.74;58.36;100664.47;5013460;28;20049;-92
2023/05/18 03:37:00;;;;;;;14.77;3.17;;;;;;;9.69;58.82;100670.13;5004835;28;20051;-91
2023/05/18 03:39:28;;;;;;;6.32;3.20;;;;;;;9.75;58.53;100667.03;4994885;28;20041;-92
2023/05/18 03:41:55;;;;;;;7.85;2.83;;;;;;;9.77;58.45;100673.06;4997960;28;20068;-92
2023/05/18 03:44:42;;;;;;;4.15;2.55;;;;;;;9.74;58.30;100669.78;4993302;28;20045;-91
2023/05/18 03:47:09;;;;;;;8.60;2.60;;;;;;;9.74;58.59;100681.25;4976042;28;20044;-92
2023/05/18 03:49:35;;;;;;;7.85;2.40;;;;;;;9.71;58.74;100678.78;4990328;28;20125;-91
2023/05/18 03:52:03;;;;;;;9.07;2.95;;;;;;;9.74;58.65;100678.59;5001707;28;20053;-92
2023/05/18 03:54:31;;;;;;;6.38;2.42;;;;;;;9.83;58.25;100678.91;4976119;28;20061;-92
2023/05/18 03:56:58;;;;;;;9.13;2.70;;;;;;;9.78;58.23;100682.72;4975883;28;20049;-92
2023/05/18 03:59:25;;;;;;;6.50;2.55;;;;;;;9.86;58.13;100679.50;4985752;28;20048;-91
2023/05/18 04:01:52;;;;;;;7.22;2.72;;;;;;;9.80;57.97;100685.28;4988229;28;20046;-91
2023/05/18 04:04:22;;;;;;;9.90;2.60;;;;;;;9.76;58.31;100681.97;4975538;28;20045;-91
2023/05/18 04:06:52;;;;;;;9.50;2.95;;;;;;;9.90;58.50;100677.50;4974480;28;20049;-90
2023/05/18 04:09:20;;;;;;;8.00;2.67;;;;;;;10.33;58.59;100675.25;4977960;28;20516;-91
2023/05/18 04:11:47;;;;;;;8.43;2.75;;;;;;;11.07;58.63;100678.50;4992448;28;20111;-92
2023/05/18 04:14:15;;;;;;;8.98;2.60;;;;;;;11.98;56.62;100673.19;4974407;28;20528;-92
2023/05/18 04:16:43;;;;;;;7.00;2.95;;;;;;;12.62;54.48;100665.22;4996353;28;20413;-93
2023/05/18 04:19:10;;;;;;;11.32;2.65;;;;;;;13.18;52.29;100672.88;5030121;28;20064;-93
2023/05/18 04:21:38;;;;;;;13.38;3.20;;;;;;;13.32;49.89;100681.53;4995666;28;20053;-92
2023/05/18 04:24:06;;;;;;;10.95;2.90;;;;;;;12.92;49.27;100672.44;4978753;28;20532;-93
2023/05/18 04:26:35;;;;;;;7.50;2.40;;;;;;;12.32;50.83;100677.44;4980358;28;20366;-92
2023/05/18 04:29:02;;;;;;;8.57;2.83;;;;;;;12.05;51.66;100685.88;4995255;28;20048;-92
2023/05/18 04:31:29;;;;;;;8.80;2.35;;;;;;;11.70;52.31;100681.53;5009801;28;20152;-92
2023/05/18 04:33:57;;;;;;;11.23;2.85;;;;;;;11.60;52.72;100685.91;4999641;28;20045;-92
2023/05/18 04:36:24;;;;;;;5.95;2.28;;;;;;;11.35;53.58;100687.00;5027625;28;20431;-93
2023/05/18 04:38:51;;;;;;;8.10;2.88;;;;;;;11.06;53.83;100686.56;4983297;28;20056;-92
2023/05/18 04:41:22;;;;;;;9.88;2.92;;;;;;;10.91;54.55;100696.56;4993663;28;20053;-92
2023/05/18 04:43:50;;;;;;;5.70;2.38;;;;;;;10.77;54.99;100687.00;5016635;28;20052;-92
2023/05/18 04:46:16;;;;;;;13.00;3.08;;;;;;;10.77;54.73;100686.16;5011704;28;20041;-92
2023/05/18 04:48:48;;;;;;;6.93;2.72;;;;;;;10.76;54.85;100695.94;5013115;28;20043;-91
2023/05/18 04:51:20;;;;;;;9.43;2.53;;;;;;;10.60;55.21;100698.03;5009006;28;20049;-92
2023/05/18 04:53:49;;;;;;;10.15;2.83;;;;;;;10.46;55.38;100701.72;5012543;28;20041;-92
2023/05/18 04:56:16;;;;;;;11.00;2.65;;;;;;;10.43;55.18;100699.28;5012442;28;20056;-91
2023/05/18 04:58:44;;;;;;;12.23;2.88;;;;;;;10.47;55.59;100698.09;4982790;28;20049;-91
2023/05/18 05:01:14;;;;;;;12.88;2.67;;;;;;;10.49;55.89;100704.16;4977774;28;20073;-92
2023/05/18 05:03:41;;;;;;;13.85;2.63;;;;;;;10.42;56.27;100706.41;4996400;28;20052;-92
2023/05/18 05:06:09;;;;;;;8.90;2.95;;;;;;;10.38;56.07;100699.63;5020761;28;20124;-90
2023/05/18 05:08:36;;;;;;;10.70;2.58;;;;;;;10.34;56.33;100706.13;4994130;28;20045;-91
2023/05/18 05:11:03;;;;;;;9.63;2.90;;;;;;;10.32;56.21;100701.88;5014199;28;20048;-91
2023/05/18 05:13:30;;;;;;;7.07;3.03;;;;;;;10.27;56.63;100702.19;4996608;28;20063;-90
2023/05/18 05:15:57;;;;;;;5.28;2.95;;;;;;;10.29;56.80;100694.16;4997007;28;20049;-91
2023/05/18 05:18:24;;;;;;;8.60;2.65;;;;;;;10.36;56.66;100690.09;4993694;28;20116;-90
2023/05/18 05:20:52;;;;;;;6.70;2.60;;;;;;;10.38;56.63;100698.75;4994303;28;20045;-90
2023/05/18 05:23:20;;;;;;;7.30;2.10;;;;;;;10.38;56.59;100702.28;5025802;28;20049;-92
2023/05/18 05:25:47;;;;;;;11.80;3.00;;;;;;;10.39;56.83;100692.50;4993790;28;20048;-92
2023/05/18 05:28:14;;;;;;;8.15;2.67;;;;;;;10.37;56.68;100702.41;5013814;28;20041;-92
2023/05/18 05:30:41;;;;;;;11.25;3.05;;;;;;;10.30;57.20;100698.50;5024174;28;20049;-91
2023/05/18 05:33:08;;;;;;;8.40;2.72;;;;;;;10.34;56.88;100694.66;5009276;28;20052;-92
2023/05/18 05:35:36;;;;;;;9.88;2.28;;;;;;;10.29;57.22;100695.00;4993771;28;20037;-91
2023/05/18 05:38:05;;;;;;;9.43;2.35;;;;;;;10.18;57.40;100711.69;4980518;28;20064;-92
2023/05/18 05:40:31;;;;;;;7.22;2.50;;;;;;;10.22;57.30;100699.88;5010896;28;20049;-92
2023/05/18 05:42:59;;;;;;;7.57;3.10;;;;;;;10.14;57.54;100707.53;4995650;28;20097;-93
2023/05/18 05:45:27;;;;;;;4.78;2.30;;;;;;;10.26;57.07;100710.28;5014137;28;20041;-91
2023/05/18 05:47:57;;;;;;;7.68;3.25;;;;;;;10.22;58.16;100709.63;4993060;28;20052;-91
2023/05/18 05:50:26;;;;;;;9.82;3.83;;;;;;;10.33;57.93;100700.91;4993652;28;20041;-93
2023/05/18 05:52:56;;;;;;;8.35;2.38;;;;;;;10.32;57.86;100731.94;4995201;28;20128;-92
2023/05/18 05:55:24;;;;;;;10.68;3.45;;;;;;;10.47;57.56;100710.53;5008422;28;20464;-91
2023/05/18 05:57:52;;;;;;;9.15;2.58;;;;;;;10.48;57.38;100706.91;4976564;28;20547;-91
2023/05/18 06:00:19;;;;;;;7.53;2.40;;;;;;;10.39;57.11;100706.63;4994351;28;20164;-91
2023/05/18 06:02:47;;;;;;;11.23;3.08;;;;;;;10.39;57.49;100711.09;5010712;28;20488;-91
2023/05/18 06:05:18;;;;;;;7.78;2.15;;;;;;;10.39;57.32;100716.41;5010543;28;20373;-91
2023/05/18 06:07:45;;;;;;;6.75;2.72;;;;;;;10.36;57.31;100714.81;5007863;28;20044;-91
2023/05/18 06:10:12;;;;;;;9.13;2.33;;;;;;;10.38;57.25;100712.03;4993193;28;20520;-92
2023/05/18 06:12:40;;;;;;;7.28;2.15;;;;;;;10.41;58.09;100731.28;4981334;28;20041;-90
2023/05/18 06:15:07;;;;;;;6.18;2.95;;;;;;;10.51;57.74;100706.69;4995229;28;20049;-90
2023/05/18 06:17:37;;;;;;;9.30;3.35;;;;;;;10.49;57.74;100703.31;4993216;28;20416;-91
2023/05/18 06:20:08;;;;;;;8.93;2.30;;;;;;;10.53;57.90;100702.09;4998850;28;20037;-92
2023/05/18 06:22:35;;;;;;;8.25;2.80;;;;;;;10.61;58.31;100713.88;5027306;28;20045;-91
2023/05/18 06:25:34;;;;;;;7.93;2.90;;;;;;;10.68;57.78;100716.06;4970484;28;20155;-91
2023/05/18 06:28:25;;;;;;;7.28;2.35;;;;;;;10.56;57.17;100716.00;4996507;28;20049;-91
2023/05/18 06:30:58;;;;;;;15.05;2.58;;;;;;;10.52;57.24;100724.31;5009199;28;20892;-90
2023/05/18 06:33:35;;;;;;;6.72;2.78;;;;;;;10.60;57.84;100716.63;4982100;28;20072;-91
2023/05/18 06:36:02;;;;;;;11.90;2.42;;;;;;;10.73;57.99;100712.06;5007266;28;20404;-91
2023/05/18 06:38:29;;;;;;;8.60;2.47;;;;;;;10.68;57.53;100729.31;5011267;28;20052;-91
2023/05/18 06:40:56;;;;;;;11.48;2.47;;;;;;;10.69;57.66;100723.06;5010105;28;20052;-92
2023/05/18 06:43:25;;;;;;;8.05;2.83;;;;;;;10.80;57.52;100725.75;5009018;28;20060;-90
2023/05/18 06:46:02;;;;;;;8.80;2.53;;;;;;;10.78;57.35;100740.97;5025432;28;20368;-91
2023/05/18 06:48:35;;;;;;;9.35;2.40;;;;;;;10.85;57.15;100727.09;4994642;28;20056;-91
2023/05/18 06:51:03;;;;;;;8.27;2.67;;;;;;;10.78;56.75;100741.81;4986189;28;20451;-90
2023/05/18 06:53:30;;;;;;;8.18;2.88;;;;;;;10.91;57.11;100723.13;5006464;28;20052;-92
2023/05/18 06:55:58;;;;;;;13.73;2.95;;;;;;;10.90;57.59;100745.38;4994725;28;20094;-90
2023/05/18 06:58:26;;;;;;;8.48;3.00;;;;;;;10.88;57.38;100722.53;4994190;28;20045;-91
2023/05/18 07:00:55;;;;;;;7.03;2.70;;;;;;;10.89;57.57;100727.75;4988570;28;20056;-90
2023/05/18 07:03:22;;;;;;;10.60;3.53;;;;;;;10.94;57.27;100725.59;5022531;28;20459;-91
2023/05/18 07:05:49;;;;;;;10.02;2.40;;;;;;;11.02;57.63;100725.84;5008449;28;20391;-91
2023/05/18 07:08:15;;;;;;;5.70;2.50;;;;;;;10.98;56.82;100731.50;4992133;28;20121;-91
2023/05/18 07:10:42;;;;;;;9.32;3.15;;;;;;;10.98;57.06;100720.88;4982480;28;20049;-89
2023/05/18 07:13:09;;;;;;;6.63;2.22;;;;;;;11.03;57.32;100739.97;5016751;28;20160;-90
2023/05/18 07:15:36;;;;;;;9.68;2.60;;;;;;;11.03;57.18;100729.34;5009474;28;20100;-89
2023/05/18 07:18:04;;;;;;;9.32;2.55;;;;;;;11.11;57.28;100731.41;5019602;28;20056;-89
2023/05/18 07:20:31;;;;;;;9.60;3.10;;;;;;;11.09;57.48;100723.53;5011355;28;20060;-90
2023/05/18 07:22:58;;;;;;;8.75;2.45;;;;;;;11.10;56.96;100721.75;5025338;28;20048;-89
2023/05/18 07:25:25;;;;;;;10.90;3.00;;;;;;;11.17;58.35;100717.63;4978055;28;20051;-89
2023/05/18 07:27:53;;;;;;;10.20;2.58;;;;;;;11.24;57.04;100711.72;5008311;28;20399;-90
2023/05/18 07:30:21;;;;;;;4.60;2.25;;;;;;;11.28;57.87;100713.19;4992729;28;20045;-89
2023/05/18 07:32:48;;;;;;;9.45;3.85;;;;;;;11.32;57.17;100719.09;4981140;28;20048;-92
2023/05/18 07:35:21;;;;;;;5.30;2.38;;;;;;;11.27;57.38;100719.50;4996575;28;20053;-90
2023/05/18 07:37:50;;;;;;;9.75;2.50;;;;;;;11.40;57.16;100714.06;5008622;28;20599;-89
2023/05/18 07:40:17;;;;;;;10.02;2.53;;;;;;;11.43;56.82;100729.78;5007456;28;20045;-88
2023/05/18 07:42:44;;;;;;;5.10;2.28;;;;;;;11.47;57.02;100719.72;5007857;28;20107;-89
2023/05/18 07:45:11;;;;;;;8.32;2.75;;;;;;;11.49;56.75;100723.97;5007694;28;20064;-89
2023/05/18 07:47:38;;;;;;;5.90;2.22;;;;;;;11.54;57.19;100710.31;5023413;28;20041;-90
2023/05/18 07:50:06;;;;;;;8.73;2.35;;;;;;;11.59;57.67;100731.25;5026133;28;20049;-90
2023/05/18 07:52:33;;;;;;;9.40;3.05;;;;;;;11.60;57.06;100712.50;5012461;28;20061;-90
2023/05/18 07:55:00;;;;;;;5.68;2.17;;;;;;;11.69;56.93;100716.25;5028403;28;20049;-89
2023/05/18 07:57:29;;;;;;;10.38;2.65;;;;;;;11.73;56.30;100739.00;4996105;28;20539;-89
2023/05/18 07:59:56;;;;;;;5.90;2.60;;;;;;;11.76;56.25;100717.47;5012667;28;20040;-89
2023/05/18 08:02:23;;;;;;;6.50;3.38;;;;;;;11.82;56.32;100711.63;5012087;28;20045;-90
2023/05/18 08:04:50;;;;;;;9.20;3.10;;;;;;;11.84;56.97;100707.03;5012114;28;20045;-90
2023/05/18 08:07:17;;;;;;;8.70;2.20;;;;;;;11.90;56.99;100709.22;5001990;28;20063;-90
2023/05/18 08:09:44;;;;;;;9.10;2.67;;;;;;;11.95;56.97;100704.38;4995491;28;20609;-89
2023/05/18 08:12:11;;;;;;;9.52;3.03;;;;;;;11.99;56.31;100693.50;4995738;28;20492;-89
2023/05/18 08:14:38;;;;;;;6.95;2.65;;;;;;;12.04;56.87;100707.31;5027175;28;20045;-90
2023/05/18 08:17:05;;;;;;;13.93;4.57;;;;;;;12.04;56.83;100709.97;4977777;28;21009;-89
2023/05/18 08:19:32;;;;;;;9.35;2.20;;;;;;;12.07;56.97;100697.25;5008215;28;20044;-89
2023/05/18 08:21:58;;;;;;;10.00;2.60;;;;;;;12.16;56.58;100707.16;4994503;28;20045;-84
2023/05/18 08:24:25;;;;;;;9.25;2.47;;;;;;;12.18;55.94;100700.84;5034274;28;20572;-84
2023/05/18 08:26:52;;;;;;;8.75;2.08;;;;;;;12.20;55.67;100696.25;4996121;28;20049;-84
2023/05/18 08:29:19;;;;;;;5.32;2.10;;;;;;;12.24;56.12;100693.22;5012956;28;20044;-83
2023/05/18 08:31:46;;;;;;;9.05;2.35;;;;;;;12.32;55.95;100693.44;5044003;28;20488;-84
2023/05/18 08:34:15;;;;;;;15.88;2.97;;;;;;;12.32;56.02;100684.59;5015858;28;20713;-84
2023/05/18 08:36:44;;;;;;;8.52;2.58;;;;;;;12.38;55.68;100684.91;5009142;28;20051;-84
2023/05/18 08:39:11;;;;;;;6.78;2.50;;;;;;;12.38;55.56;100679.59;5009387;28;20047;-83
2023/05/18 08:41:46;;;;;;;10.18;2.95;;;;;;;12.40;54.89;100682.13;5012321;28;20041;-83
2023/05/18 08:44:16;;;;;;;10.40;2.60;;;;;;;12.46;54.92;100688.78;5009428;28;20041;-85
2023/05/18 08:46:49;;;;;;;7.85;2.50;;;;;;;12.44;55.07;100675.59;5008379;28;20064;-84
2023/05/18 08:49:18;;;;;;;5.47;2.00;;;;;;;12.49;55.45;100672.53;5027918;28;20041;-84
2023/05/18 08:51:46;;;;;;;5.95;2.35;;;;;;;12.51;55.33;100673.25;5011537;28;20045;-84
2023/05/18 08:54:19;;;;;;;5.88;2.20;;;;;;;12.56;54.67;100671.88;5007115;28;20049;-84
2023/05/18 08:56:47;;;;;;;8.30;2.60;;;;;;;12.55;54.67;100680.88;4994147;28;20179;-84
2023/05/18 08:59:18;;;;;;;8.77;3.60;;;;;;;12.59;54.48;100670.78;5014558;28;20132;-83
2023/05/18 09:01:45;;;;;;;7.95;2.60;;;;;;;12.65;54.73;100674.78;5028091;28;20068;-84
2023/05/18 09:04:12;;;;;;;9.98;2.95;;;;;;;12.62;54.61;100689.22;5008372;28;20045;-83
2023/05/18 09:06:39;;;;;;;10.25;2.45;;;;;;;12.61;54.81;100682.16;5008627;28;20543;-83
2023/05/18 09:09:06;;;;;;;16.63;3.35;;;;;;;12.64;54.78;100665.91;5024623;28;20073;-84
2023/05/18 09:11:34;;;;;;;8.55;2.88;;;;;;;12.72;55.33;100668.81;5007701;28;20151;-84
2023/05/18 09:14:01;;;;;;;6.28;2.38;;;;;;;12.72;54.27;100679.47;5007811;28;20055;-84
2023/05/18 09:16:29;;;;;;;10.48;2.95;;;;;;;12.78;54.67;100656.78;5044483;28;21288;-84
2023/05/18 09:18:56;;;;;;;3.60;2.00;;;;;;;12.82;53.98;100663.53;5024026;28;20155;-84
2023/05/18 09:21:23;;;;;;;12.02;2.92;;;;;;;12.84;53.35;100658.91;5023612;28;20060;-83
2023/05/18 09:23:50;;;;;;;5.75;2.33;;;;;;;12.89;54.29;100667.38;5010204;28;20037;-85
2023/05/18 09:26:18;;;;;;;10.45;2.45;;;;;;;12.90;54.15;100668.19;5026605;28;20044;-84
2023/05/18 09:28:48;;;;;;;7.07;2.33;;;;;;;12.95;53.95;100669.53;5040590;28;20076;-84
2023/05/18 09:31:19;;;;;;;9.40;2.60;;;;;;;12.97;53.95;100642.72;4982009;28;20036;-85
2023/05/18 09:33:47;;;;;;;9.63;2.60;;;;;;;13.05;54.67;100661.56;5017896;28;20056;-85
2023/05/18 09:36:15;;;;;;;8.25;2.63;;;;;;;13.07;53.84;100658.78;5009990;28;20550;-84
2023/05/18 09:38:44;;;;;;;9.88;2.83;;;;;;;13.12;53.39;100661.88;5012164;28;20041;-85
2023/05/18 09:41:13;;;;;;;8.25;1.95;;;;;;;13.14;53.86;100654.59;5027821;28;20037;-85
2023/05/18 09:43:42;;;;;;;11.13;2.15;;;;;;;13.19;53.96;100663.06;5009901;28;20053;-85
2023/05/18 09:46:10;;;;;;;11.63;2.40;;;;;;;13.21;53.70;100653.09;5024232;28;20044;-85
2023/05/18 09:48:44;;;;;;;6.50;2.40;;;;;;;13.21;53.42;100643.28;4998280;28;20049;-84
2023/05/18 09:51:16;;;;;;;8.40;2.30;;;;;;;13.22;52.59;100650.28;4997684;28;20045;-85
2023/05/18 09:53:48;;;;;;;7.53;2.28;;;;;;;13.15;52.58;100654.50;5011652;28;20152;-84
2023/05/18 09:56:17;;;;;;;12.20;2.50;;;;;;;13.19;53.17;100647.91;4999862;28;20049;-83
2023/05/18 09:58:44;;;;;;;7.85;2.40;;;;;;;13.21;52.93;100643.28;4994854;28;20049;-84
2023/05/18 10:01:11;;;;;;;8.77;2.30;;;;;;;13.22;53.46;100649.44;5027116;28;20094;-84
2023/05/18 10:03:38;;;;;;;6.78;2.85;;;;;;;13.26;52.60;100650.88;5041294;28;20048;-84
2023/05/18 10:06:13;;;;;;;13.30;3.38;;;;;;;13.15;52.45;100645.63;5015371;28;20076;-83
2023/05/18 10:08:40;;;;;;;8.88;2.22;;;;;;;13.19;52.19;100637.22;5025815;28;20051;-84
2023/05/18 10:11:07;;;;;;;6.03;2.42;;;;;;;13.22;52.23;100628.13;5024103;28;20037;-84
2023/05/18 10:13:34;;;;;;;10.10;2.65;;;;;;;13.29;52.25;100633.81;5009540;28;20069;-84
2023/05/18 10:16:03;;;;;;;12.48;2.60;;;;;;;13.31;52.88;100632.69;5001139;28;20445;-84
2023/05/18 10:18:35;;;;;;;8.07;2.42;;;;;;;13.37;52.62;100628.63;4994997;28;20055;-84
2023/05/18 10:21:04;;;;;;;12.13;3.78;;;;;;;13.51;51.35;100649.63;5008948;28;20095;-84
2023/05/18 10:23:35;;;;;;;10.70;3.03;;;;;;;13.53;50.61;100638.81;5001613;28;20480;-83
2023/05/18 10:26:06;;;;;;;7.72;2.22;;;;;;;13.55;49.58;100636.84;4983275;28;20068;-83
2023/05/18 10:28:37;;;;;;;9.88;2.83;;;;;;;13.65;48.71;100625.22;5044061;28;20061;-84
2023/05/18 10:31:05;;;;;;;13.68;3.00;;;;;;;13.78;50.88;100624.13;5035945;28;20132;-84
2023/05/18 10:33:34;;;;;;;7.22;2.42;;;;;;;13.84;50.89;100624.44;4993045;28;20045;-85
2023/05/18 10:36:05;;;;;;;8.55;2.45;;;;;;;13.88;50.87;100617.81;4994430;28;20089;-84
2023/05/18 10:38:33;;;;;;;7.03;1.98;;;;;;;13.96;51.01;100622.47;5027061;28;20052;-85
2023/05/18 10:41:00;;;;;;;6.43;2.33;;;;;;;13.99;51.01;100624.88;5008796;28;20047;-85
2023/05/18 10:43:27;;;;;;;10.25;3.17;;;;;;;14.00;50.15;100631.91;5006444;28;20091;-84
2023/05/18 10:45:56;;;;;;;7.45;2.08;;;;;;;13.97;49.83;100613.50;5023857;28;20053;-84
2023/05/18 10:48:24;;;;;;;9.60;2.63;;;;;;;14.02;48.80;100615.75;5025140;28;20033;-84
2023/05/18 10:50:53;;;;;;;5.53;2.20;;;;;;;13.93;49.27;100628.09;5010762;28;20403;-84
2023/05/18 10:53:22;;;;;;;6.93;2.35;;;;;;;14.00;49.04;100612.38;4990739;28;20044;-84
2023/05/18 10:55:51;;;;;;;11.50;2.80;;;;;;;14.05;49.01;100623.47;5009597;28;20041;-85
2023/05/18 10:58:19;;;;;;;9.35;2.42;;;;;;;14.06;49.19;100609.97;5026560;28;20060;-85
2023/05/18 11:00:51;;;;;;;4.85;2.20;;;;;;;14.02;49.46;100611.25;5023623;28;20045;-84
2023/05/18 11:03:18;;;;;;;8.30;2.03;;;;;;;14.10;50.16;100610.56;5021505;28;20504;-86
2023/05/18 11:05:51;;;;;;;12.00;2.30;;;;;;;14.11;50.21;100618.41;5026140;28;20581;-84
2023/05/18 11:08:25;;;;;;;6.57;2.33;;;;;;;14.12;48.83;100624.63;5010539;28;20078;-83
2023/05/18 11:11:03;;;;;;;7.10;2.15;;;;;;;14.06;49.11;100620.66;5024523;28;20053;-84
2023/05/18 11:13:31;;;;;;;7.38;2.22;;;;;;;14.06;49.69;100601.97;5015306;28;20484;-84
2023/05/18 11:15:58;;;;;;;5.90;2.30;;;;;;;14.06;50.29;100612.66;5043018;28;20077;-83
2023/05/18 11:18:41;;;;;;;10.18;2.42;;;;;;;14.12;48.90;100613.94;5043908;28;20041;-85
2023/05/18 11:21:23;;;;;;;7.50;2.20;;;;;;;14.14;48.65;100605.75;5022516;28;20069;-83
2023/05/18 11:24:12;;;;;;;8.02;2.63;;;;;;;14.19;48.25;100600.84;5044128;28;20065;-84
2023/05/18 11:26:39;;;;;;;7.43;2.28;;;;;;;14.24;48.94;100594.09;5012048;28;20510;-83
2023/05/18 11:29:43;;;;;;;9.18;3.15;;;;;;;14.15;49.49;100596.78;5009609;28;20501;-83
2023/05/18 11:32:28;;;;;;;8.48;2.20;;;;;;;14.14;49.30;100600.44;5000661;28;20045;-84